Список аэропортов
Фактическая погода:

23 апреля, 12:00
Температура: +11°C (+7.5*)
Ветер: восточный 10 м/с
Давление: *754 мм
несуществ. обл.
Время (МСК)Темп. СВетерВлажностьДавлениеОблачностьОсадки
09:00+10ЮВ, 10 м/с54%1010 гПаоблачно
10:00+11ЮВ, 10 м/с51%1008 гПаоблачно
11:00+13ЮВ, 9 м/с51%1006 гПаоблачно
12:00+14ЮВ, 9 м/с50%1004 гПамалооблачно
13:00+16ЮВ, 8 м/с48%1002 гПас прояснениямисл. дождь
14:00+17ЮВ, 8 м/с47%1000 гПаоблачно
15:00+17ЮВ, 8 м/с47%998 гПаоблачно
16:00+18ЮВ, 8 м/с48%996 гПаоблачно
17:00+18ЮВ, 6 м/с51%995 гПаоблачно
18:00+18ЮВ, 4 м/с55%994 гПаоблачно
19:00+16ЮВ, 2 м/с63%994 гПаоблачно
20:00+16З, 5 м/с74%998 гПаоблачнодождь
21:00+16З, 10 м/с28%999 гПаясно
22:00+15З, 8 м/с28%1000 гПаясно
23:00+14ЮЗ, 8 м/с29%1001 гПаясно
24 апреля
00:00+14ЮЗ, 11 м/с28%1001 гПаясно
01:00+13З, 12 м/с27%1003 гПаясно
02:00+11З, 9 м/с27%1004 гПаясно
03:00+10З, 7 м/с31%1004 гПаясно
04:00+10З, 8 м/с32%1005 гПаясно
05:00+10З, 9 м/с29%1006 гПаясно
06:00+11З, 8 м/с29%1006 гПаясно
07:00+12З, 7 м/с30%1007 гПаясно
08:00+13З, 9 м/с31%1007 гПаясно
09:00+14З, 11 м/с30%1007 гПаясно
10:00+15З, 10 м/с29%1008 гПаясно
11:00+16З, 9 м/с28%1008 гПаясно
12:00+17СЗ, 8 м/с26%1008 гПаясно
13:00+18СЗ, 7 м/с25%1008 гПаясно
14:00+19СЗ, 6 м/с24%1008 гПаясно
15:00+19СЗ, 5 м/с26%1008 гПаоблачно
16:00+16З, 3 м/с47%1009 гПаоблачнодождь
17:00+15З, 2 м/с61%1010 гПаоблачнодождь
18:00+14З, 2 м/с59%1011 гПаоблачнодождь
19:00+13СВ, 1 м/с65%1012 гПаоблачнодождь
20:00+12СЗ, 2 м/с71%1013 гПаоблачнодождь
21:00+11СЗ, 1 м/с77%1014 гПаоблачнодождь
22:00+10СЗ, 1 м/с78%1015 гПаоблачнодождь
23:00+10СЗ, 2 м/с81%1015 гПаоблачносл. дождь
25 апреля
00:00+9СЗ, 3 м/с71%1016 гПаоблачно
01:00+8СЗ, 3 м/с62%1016 гПаоблачно
02:00+8СЗ, 5 м/с56%1017 гПаоблачно
03:00+7З, 6 м/с55%1017 гПаоблачно
04:00+7З, 7 м/с50%1018 гПаоблачно
05:00+7З, 9 м/с47%1019 гПаоблачно
06:00+7З, 10 м/с53%1020 гПаоблачно
07:00+8З, 10 м/с55%1021 гПамалооблачно
08:00+9З, 10 м/с51%1021 гПаясно
09:00+10З, 10 м/с47%1022 гПаясно